sensor_id;sensor_type;location;lat;lon;timestamp;P1;durP1;ratioP1;P2;durP2;ratioP2
10987;SDS011;5547;42.672;23.230;2023-09-30T00:02:52;10.80;;;6.40;;
10987;SDS011;5547;42.672;23.230;2023-09-30T00:05:52;8.53;;;6.63;;
10987;SDS011;5547;42.672;23.230;2023-09-30T00:08:53;10.67;;;7.20;;
10987;SDS011;5547;42.672;23.230;2023-09-30T00:11:53;11.57;;;6.88;;
10987;SDS011;5547;42.672;23.230;2023-09-30T00:14:55;10.10;;;6.40;;
10987;SDS011;5547;42.672;23.230;2023-09-30T00:17:55;10.63;;;6.60;;
10987;SDS011;5547;42.672;23.230;2023-09-30T00:20:56;11.97;;;6.37;;
10987;SDS011;5547;42.672;23.230;2023-09-30T00:23:57;8.90;;;5.88;;
10987;SDS011;5547;42.672;23.230;2023-09-30T00:26:57;10.17;;;6.00;;
10987;SDS011;5547;42.672;23.230;2023-09-30T00:29:58;9.80;;;6.00;;
10987;SDS011;5547;42.672;23.230;2023-09-30T00:32:59;10.03;;;6.10;;
10987;SDS011;5547;42.672;23.230;2023-09-30T00:35:59;12.30;;;6.47;;
10987;SDS011;5547;42.672;23.230;2023-09-30T00:38:59;8.87;;;6.03;;
10987;SDS011;5547;42.672;23.230;2023-09-30T00:42:00;10.53;;;6.10;;
10987;SDS011;5547;42.672;23.230;2023-09-30T00:45:00;9.60;;;5.80;;
10987;SDS011;5547;42.672;23.230;2023-09-30T00:48:01;10.33;;;6.10;;
10987;SDS011;5547;42.672;23.230;2023-09-30T00:51:01;10.60;;;5.70;;
10987;SDS011;5547;42.672;23.230;2023-09-30T00:54:03;8.65;;;5.35;;
10987;SDS011;5547;42.672;23.230;2023-09-30T00:57:03;7.70;;;5.63;;
10987;SDS011;5547;42.672;23.230;2023-09-30T01:00:04;8.30;;;5.70;;
10987;SDS011;5547;42.672;23.230;2023-09-30T01:03:06;8.85;;;5.70;;
10987;SDS011;5547;42.672;23.230;2023-09-30T01:06:07;8.53;;;5.70;;
10987;SDS011;5547;42.672;23.230;2023-09-30T01:09:08;9.80;;;5.28;;
10987;SDS011;5547;42.672;23.230;2023-09-30T01:12:09;10.20;;;6.05;;
10987;SDS011;5547;42.672;23.230;2023-09-30T01:15:09;8.23;;;5.57;;
10987;SDS011;5547;42.672;23.230;2023-09-30T01:18:10;7.87;;;5.40;;
10987;SDS011;5547;42.672;23.230;2023-09-30T01:21:11;9.25;;;5.57;;
10987;SDS011;5547;42.672;23.230;2023-09-30T01:24:12;10.63;;;5.32;;
10987;SDS011;5547;42.672;23.230;2023-09-30T01:27:13;7.43;;;5.60;;
10987;SDS011;5547;42.672;23.230;2023-09-30T01:30:13;8.52;;;5.15;;
10987;SDS011;5547;42.672;23.230;2023-09-30T01:33:14;8.87;;;5.70;;
10987;SDS011;5547;42.672;23.230;2023-09-30T01:36:17;8.02;;;5.68;;
10987;SDS011;5547;42.672;23.230;2023-09-30T01:39:18;8.87;;;5.37;;
10987;SDS011;5547;42.672;23.230;2023-09-30T01:42:18;8.65;;;4.70;;
10987;SDS011;5547;42.672;23.230;2023-09-30T01:45:19;10.93;;;6.35;;
10987;SDS011;5547;42.672;23.230;2023-09-30T01:48:20;8.10;;;5.30;;
10987;SDS011;5547;42.672;23.230;2023-09-30T01:51:20;9.10;;;5.43;;
10987;SDS011;5547;42.672;23.230;2023-09-30T01:54:21;6.85;;;5.00;;
10987;SDS011;5547;42.672;23.230;2023-09-30T01:57:22;9.40;;;4.80;;
10987;SDS011;5547;42.672;23.230;2023-09-30T02:00:22;8.67;;;5.20;;
10987;SDS011;5547;42.672;23.230;2023-09-30T02:03:23;8.75;;;5.95;;
10987;SDS011;5547;42.672;23.230;2023-09-30T02:06:23;8.00;;;5.27;;
10987;SDS011;5547;42.672;23.230;2023-09-30T02:09:23;7.97;;;5.30;;
10987;SDS011;5547;42.672;23.230;2023-09-30T02:12:24;8.23;;;5.37;;
10987;SDS011;5547;42.672;23.230;2023-09-30T02:15:24;9.80;;;5.80;;
10987;SDS011;5547;42.672;23.230;2023-09-30T02:18:25;9.30;;;5.80;;
10987;SDS011;5547;42.672;23.230;2023-09-30T02:21:25;10.80;;;6.20;;
10987;SDS011;5547;42.672;23.230;2023-09-30T02:24:27;9.68;;;5.38;;
10987;SDS011;5547;42.672;23.230;2023-09-30T02:27:27;9.73;;;5.90;;
10987;SDS011;5547;42.672;23.230;2023-09-30T02:30:28;10.48;;;5.55;;
10987;SDS011;5547;42.672;23.230;2023-09-30T02:33:28;9.67;;;5.60;;
10987;SDS011;5547;42.672;23.230;2023-09-30T02:36:29;10.13;;;5.82;;
10987;SDS011;5547;42.672;23.230;2023-09-30T02:39:29;9.85;;;5.70;;
10987;SDS011;5547;42.672;23.230;2023-09-30T02:42:30;9.03;;;5.43;;
10987;SDS011;5547;42.672;23.230;2023-09-30T02:45:31;10.13;;;5.88;;
10987;SDS011;5547;42.672;23.230;2023-09-30T02:48:31;11.32;;;6.50;;
10987;SDS011;5547;42.672;23.230;2023-09-30T02:51:32;10.50;;;6.23;;
10987;SDS011;5547;42.672;23.230;2023-09-30T02:54:32;9.13;;;6.00;;
10987;SDS011;5547;42.672;23.230;2023-09-30T02:57:33;10.85;;;5.15;;
10987;SDS011;5547;42.672;23.230;2023-09-30T03:00:33;8.23;;;5.80;;
10987;SDS011;5547;42.672;23.230;2023-09-30T03:03:37;8.43;;;5.28;;
10987;SDS011;5547;42.672;23.230;2023-09-30T03:06:39;11.48;;;6.57;;
10987;SDS011;5547;42.672;23.230;2023-09-30T03:09:39;8.77;;;6.20;;
10987;SDS011;5547;42.672;23.230;2023-09-30T03:12:40;8.55;;;5.95;;
10987;SDS011;5547;42.672;23.230;2023-09-30T03:15:41;9.53;;;5.90;;
10987;SDS011;5547;42.672;23.230;2023-09-30T03:18:41;7.57;;;5.67;;
10987;SDS011;5547;42.672;23.230;2023-09-30T03:21:44;8.00;;;5.53;;
10987;SDS011;5547;42.672;23.230;2023-09-30T03:24:44;8.93;;;5.77;;
10987;SDS011;5547;42.672;23.230;2023-09-30T03:27:45;9.37;;;5.63;;
10987;SDS011;5547;42.672;23.230;2023-09-30T03:30:46;8.77;;;5.88;;
10987;SDS011;5547;42.672;23.230;2023-09-30T03:33:46;8.13;;;6.17;;
10987;SDS011;5547;42.672;23.230;2023-09-30T03:36:48;10.25;;;5.95;;
10987;SDS011;5547;42.672;23.230;2023-09-30T03:39:49;12.10;;;5.60;;
10987;SDS011;5547;42.672;23.230;2023-09-30T03:42:50;8.90;;;5.30;;
10987;SDS011;5547;42.672;23.230;2023-09-30T03:45:50;11.40;;;5.43;;
10987;SDS011;5547;42.672;23.230;2023-09-30T03:48:50;11.43;;;5.90;;
10987;SDS011;5547;42.672;23.230;2023-09-30T03:51:51;11.33;;;5.80;;
10987;SDS011;5547;42.672;23.230;2023-09-30T03:54:53;9.13;;;5.60;;
10987;SDS011;5547;42.672;23.230;2023-09-30T03:57:54;14.97;;;6.50;;
10987;SDS011;5547;42.672;23.230;2023-09-30T04:00:55;12.68;;;6.70;;
10987;SDS011;5547;42.672;23.230;2023-09-30T04:03:56;13.07;;;6.32;;
10987;SDS011;5547;42.672;23.230;2023-09-30T04:06:56;14.20;;;6.70;;
10987;SDS011;5547;42.672;23.230;2023-09-30T04:09:57;15.07;;;6.40;;
10987;SDS011;5547;42.672;23.230;2023-09-30T04:12:57;11.23;;;5.43;;
10987;SDS011;5547;42.672;23.230;2023-09-30T04:15:58;16.65;;;6.22;;
10987;SDS011;5547;42.672;23.230;2023-09-30T04:18:59;16.13;;;6.33;;
10987;SDS011;5547;42.672;23.230;2023-09-30T04:22:00;14.88;;;6.75;;
10987;SDS011;5547;42.672;23.230;2023-09-30T04:25:00;14.93;;;6.63;;
10987;SDS011;5547;42.672;23.230;2023-09-30T04:28:01;14.00;;;7.20;;
10987;SDS011;5547;42.672;23.230;2023-09-30T04:31:02;15.20;;;7.15;;
10987;SDS011;5547;42.672;23.230;2023-09-30T04:34:03;16.40;;;6.53;;
10987;SDS011;5547;42.672;23.230;2023-09-30T04:37:04;13.15;;;7.20;;
10987;SDS011;5547;42.672;23.230;2023-09-30T04:40:05;15.17;;;6.23;;
10987;SDS011;5547;42.672;23.230;2023-09-30T04:43:07;11.73;;;6.45;;
10987;SDS011;5547;42.672;23.230;2023-09-30T04:46:08;11.30;;;6.33;;
10987;SDS011;5547;42.672;23.230;2023-09-30T04:49:08;12.13;;;6.33;;
10987;SDS011;5547;42.672;23.230;2023-09-30T04:52:09;9.07;;;5.53;;
10987;SDS011;5547;42.672;23.230;2023-09-30T04:55:09;13.53;;;7.23;;
10987;SDS011;5547;42.672;23.230;2023-09-30T04:58:12;12.10;;;6.65;;
10987;SDS011;5547;42.672;23.230;2023-09-30T05:01:12;10.55;;;6.43;;
10987;SDS011;5547;42.672;23.230;2023-09-30T05:04:13;11.60;;;7.00;;
10987;SDS011;5547;42.672;23.230;2023-09-30T05:07:13;14.97;;;8.33;;
10987;SDS011;5547;42.672;23.230;2023-09-30T05:10:14;13.63;;;7.43;;
10987;SDS011;5547;42.672;23.230;2023-09-30T05:13:15;10.40;;;6.18;;
10987;SDS011;5547;42.672;23.230;2023-09-30T05:16:17;11.50;;;6.23;;
10987;SDS011;5547;42.672;23.230;2023-09-30T05:19:18;8.77;;;5.90;;
10987;SDS011;5547;42.672;23.230;2023-09-30T05:22:20;10.02;;;5.18;;
10987;SDS011;5547;42.672;23.230;2023-09-30T05:25:23;9.32;;;5.28;;
10987;SDS011;5547;42.672;23.230;2023-09-30T05:28:26;9.67;;;5.20;;
10987;SDS011;5547;42.672;23.230;2023-09-30T05:31:27;8.68;;;5.18;;
10987;SDS011;5547;42.672;23.230;2023-09-30T05:34:27;7.50;;;4.70;;
10987;SDS011;5547;42.672;23.230;2023-09-30T05:37:28;6.87;;;5.00;;
10987;SDS011;5547;42.672;23.230;2023-09-30T05:40:28;8.40;;;4.43;;
10987;SDS011;5547;42.672;23.230;2023-09-30T05:43:30;7.68;;;4.63;;
10987;SDS011;5547;42.672;23.230;2023-09-30T05:46:30;6.27;;;4.03;;
10987;SDS011;5547;42.672;23.230;2023-09-30T05:49:31;8.07;;;4.27;;
10987;SDS011;5547;42.672;23.230;2023-09-30T05:52:31;6.93;;;4.43;;
10987;SDS011;5547;42.672;23.230;2023-09-30T05:55:32;8.45;;;5.20;;
10987;SDS011;5547;42.672;23.230;2023-09-30T05:58:32;8.17;;;4.37;;
10987;SDS011;5547;42.672;23.230;2023-09-30T06:01:33;7.57;;;4.50;;
10987;SDS011;5547;42.672;23.230;2023-09-30T06:04:33;7.63;;;4.60;;
10987;SDS011;5547;42.672;23.230;2023-09-30T06:07:34;8.88;;;4.70;;
10987;SDS011;5547;42.672;23.230;2023-09-30T06:10:34;7.78;;;5.15;;
10987;SDS011;5547;42.672;23.230;2023-09-30T06:13:37;11.00;;;5.40;;
10987;SDS011;5547;42.672;23.230;2023-09-30T06:16:38;9.80;;;5.97;;
10987;SDS011;5547;42.672;23.230;2023-09-30T06:19:39;11.30;;;5.80;;
10987;SDS011;5547;42.672;23.230;2023-09-30T06:22:39;10.97;;;4.63;;
10987;SDS011;5547;42.672;23.230;2023-09-30T06:25:39;7.60;;;4.23;;
10987;SDS011;5547;42.672;23.230;2023-09-30T06:28:40;7.30;;;4.10;;
10987;SDS011;5547;42.672;23.230;2023-09-30T06:31:41;6.72;;;4.40;;
10987;SDS011;5547;42.672;23.230;2023-09-30T06:34:41;8.13;;;4.13;;
10987;SDS011;5547;42.672;23.230;2023-09-30T06:37:41;8.20;;;4.40;;
10987;SDS011;5547;42.672;23.230;2023-09-30T06:40:42;9.47;;;3.73;;
10987;SDS011;5547;42.672;23.230;2023-09-30T06:43:43;7.32;;;3.83;;
10987;SDS011;5547;42.672;23.230;2023-09-30T06:46:44;5.95;;;3.70;;
10987;SDS011;5547;42.672;23.230;2023-09-30T06:49:44;5.70;;;3.70;;
10987;SDS011;5547;42.672;23.230;2023-09-30T06:52:46;7.57;;;3.53;;
10987;SDS011;5547;42.672;23.230;2023-09-30T06:55:49;5.93;;;3.50;;
10987;SDS011;5547;42.672;23.230;2023-09-30T06:58:51;7.78;;;3.90;;
10987;SDS011;5547;42.672;23.230;2023-09-30T07:01:51;9.43;;;4.10;;
10987;SDS011;5547;42.672;23.230;2023-09-30T07:04:52;7.17;;;3.90;;
10987;SDS011;5547;42.672;23.230;2023-09-30T07:07:52;15.33;;;6.50;;
10987;SDS011;5547;42.672;23.230;2023-09-30T07:10:53;9.27;;;4.47;;
10987;SDS011;5547;42.672;23.230;2023-09-30T07:13:53;9.03;;;4.27;;
10987;SDS011;5547;42.672;23.230;2023-09-30T07:16:54;9.50;;;4.50;;
10987;SDS011;5547;42.672;23.230;2023-09-30T07:19:54;6.50;;;4.10;;
10987;SDS011;5547;42.672;23.230;2023-09-30T07:22:55;5.67;;;3.67;;
10987;SDS011;5547;42.672;23.230;2023-09-30T07:25:55;9.23;;;4.47;;
10987;SDS011;5547;42.672;23.230;2023-09-30T07:28:57;11.93;;;4.97;;
10987;SDS011;5547;42.672;23.230;2023-09-30T07:31:58;7.00;;;4.13;;
10987;SDS011;5547;42.672;23.230;2023-09-30T07:34:58;6.97;;;3.90;;
10987;SDS011;5547;42.672;23.230;2023-09-30T07:37:59;7.27;;;4.20;;
10987;SDS011;5547;42.672;23.230;2023-09-30T07:41:00;6.33;;;4.37;;
10987;SDS011;5547;42.672;23.230;2023-09-30T07:44:01;7.32;;;4.20;;
10987;SDS011;5547;42.672;23.230;2023-09-30T07:47:01;8.18;;;4.03;;
10987;SDS011;5547;42.672;23.230;2023-09-30T07:50:03;8.25;;;4.05;;
10987;SDS011;5547;42.672;23.230;2023-09-30T07:53:09;8.53;;;4.30;;
10987;SDS011;5547;42.672;23.230;2023-09-30T07:56:12;8.07;;;4.00;;
10987;SDS011;5547;42.672;23.230;2023-09-30T07:59:14;11.35;;;4.78;;
10987;SDS011;5547;42.672;23.230;2023-09-30T08:02:15;8.53;;;3.87;;
10987;SDS011;5547;42.672;23.230;2023-09-30T08:05:16;8.90;;;4.67;;
10987;SDS011;5547;42.672;23.230;2023-09-30T08:08:17;8.45;;;4.82;;
10987;SDS011;5547;42.672;23.230;2023-09-30T08:11:17;10.07;;;4.30;;
10987;SDS011;5547;42.672;23.230;2023-09-30T08:14:20;7.80;;;4.63;;
10987;SDS011;5547;42.672;23.230;2023-09-30T08:17:21;11.67;;;4.60;;
10987;SDS011;5547;42.672;23.230;2023-09-30T08:20:21;7.77;;;4.43;;
10987;SDS011;5547;42.672;23.230;2023-09-30T08:23:22;7.00;;;4.70;;
10987;SDS011;5547;42.672;23.230;2023-09-30T08:26:22;7.68;;;5.22;;
10987;SDS011;5547;42.672;23.230;2023-09-30T08:29:23;10.18;;;5.38;;
10987;SDS011;5547;42.672;23.230;2023-09-30T08:32:23;9.77;;;6.17;;
10987;SDS011;5547;42.672;23.230;2023-09-30T08:35:24;10.83;;;5.87;;
10987;SDS011;5547;42.672;23.230;2023-09-30T08:38:25;11.48;;;6.63;;
10987;SDS011;5547;42.672;23.230;2023-09-30T08:41:35;10.35;;;6.18;;
10987;SDS011;5547;42.672;23.230;2023-09-30T08:44:36;12.85;;;6.10;;
10987;SDS011;5547;42.672;23.230;2023-09-30T08:47:39;12.02;;;5.97;;
10987;SDS011;5547;42.672;23.230;2023-09-30T08:50:40;12.73;;;5.95;;
10987;SDS011;5547;42.672;23.230;2023-09-30T08:53:42;11.27;;;6.77;;
10987;SDS011;5547;42.672;23.230;2023-09-30T08:56:44;12.95;;;7.85;;
10987;SDS011;5547;42.672;23.230;2023-09-30T08:59:48;11.98;;;6.72;;
10987;SDS011;5547;42.672;23.230;2023-09-30T09:02:50;9.32;;;6.47;;
10987;SDS011;5547;42.672;23.230;2023-09-30T09:05:54;13.50;;;7.23;;
10987;SDS011;5547;42.672;23.230;2023-09-30T09:09:12;12.23;;;6.97;;
10987;SDS011;5547;42.672;23.230;2023-09-30T09:12:18;14.52;;;8.10;;
10987;SDS011;5547;42.672;23.230;2023-09-30T09:15:20;10.47;;;6.77;;
10987;SDS011;5547;42.672;23.230;2023-09-30T09:18:32;14.48;;;7.28;;
10987;SDS011;5547;42.672;23.230;2023-09-30T09:21:35;10.25;;;7.30;;
10987;SDS011;5547;42.672;23.230;2023-09-30T09:24:38;10.20;;;6.97;;
10987;SDS011;5547;42.672;23.230;2023-09-30T09:27:39;12.57;;;6.78;;
10987;SDS011;5547;42.672;23.230;2023-09-30T09:30:39;11.57;;;6.03;;
10987;SDS011;5547;42.672;23.230;2023-09-30T09:33:41;12.32;;;6.28;;
10987;SDS011;5547;42.672;23.230;2023-09-30T09:36:42;8.80;;;6.37;;
10987;SDS011;5547;42.672;23.230;2023-09-30T09:39:50;11.15;;;7.07;;
10987;SDS011;5547;42.672;23.230;2023-09-30T09:42:58;9.77;;;6.17;;
10987;SDS011;5547;42.672;23.230;2023-09-30T09:45:59;10.87;;;6.00;;
10987;SDS011;5547;42.672;23.230;2023-09-30T09:49:03;9.30;;;5.43;;
10987;SDS011;5547;42.672;23.230;2023-09-30T09:52:04;8.50;;;5.47;;
10987;SDS011;5547;42.672;23.230;2023-09-30T09:55:06;8.37;;;4.93;;
10987;SDS011;5547;42.672;23.230;2023-09-30T09:58:08;10.30;;;4.70;;
10987;SDS011;5547;42.672;23.230;2023-09-30T10:01:10;9.00;;;5.10;;
10987;SDS011;5547;42.672;23.230;2023-09-30T10:04:10;8.77;;;4.90;;
10987;SDS011;5547;42.672;23.230;2023-09-30T10:07:16;8.18;;;5.00;;
10987;SDS011;5547;42.672;23.230;2023-09-30T10:10:22;7.10;;;4.73;;
10987;SDS011;5547;42.672;23.230;2023-09-30T10:16:52;12.73;;;5.18;;
10987;SDS011;5547;42.672;23.230;2023-09-30T10:20:14;7.40;;;4.30;;
10987;SDS011;5547;42.672;23.230;2023-09-30T10:23:17;7.27;;;4.40;;
10987;SDS011;5547;42.672;23.230;2023-09-30T10:26:19;9.30;;;5.53;;
10987;SDS011;5547;42.672;23.230;2023-09-30T10:29:20;10.02;;;6.70;;
10987;SDS011;5547;42.672;23.230;2023-09-30T10:32:20;7.23;;;4.17;;
10987;SDS011;5547;42.672;23.230;2023-09-30T10:35:21;10.40;;;4.63;;
10987;SDS011;5547;42.672;23.230;2023-09-30T10:38:42;6.93;;;4.05;;
10987;SDS011;5547;42.672;23.230;2023-09-30T10:44:46;6.45;;;4.15;;
10987;SDS011;5547;42.672;23.230;2023-09-30T10:47:46;5.53;;;3.33;;
10987;SDS011;5547;42.672;23.230;2023-09-30T10:50:52;5.93;;;3.47;;
10987;SDS011;5547;42.672;23.230;2023-09-30T10:53:53;6.88;;;3.95;;
10987;SDS011;5547;42.672;23.230;2023-09-30T10:57:00;5.80;;;4.00;;
10987;SDS011;5547;42.672;23.230;2023-09-30T11:00:07;11.07;;;5.50;;
10987;SDS011;5547;42.672;23.230;2023-09-30T11:03:12;9.57;;;4.60;;
10987;SDS011;5547;42.672;23.230;2023-09-30T11:06:15;10.03;;;6.60;;
10987;SDS011;5547;42.672;23.230;2023-09-30T11:09:18;6.75;;;3.88;;
10987;SDS011;5547;42.672;23.230;2023-09-30T11:12:22;5.45;;;3.65;;
10987;SDS011;5547;42.672;23.230;2023-09-30T11:15:23;7.97;;;4.07;;
10987;SDS011;5547;42.672;23.230;2023-09-30T11:18:24;5.72;;;3.90;;
10987;SDS011;5547;42.672;23.230;2023-09-30T11:21:25;5.07;;;3.80;;
10987;SDS011;5547;42.672;23.230;2023-09-30T11:24:25;6.77;;;3.70;;
10987;SDS011;5547;42.672;23.230;2023-09-30T11:27:26;6.68;;;3.55;;
10987;SDS011;5547;42.672;23.230;2023-09-30T11:30:27;5.73;;;3.50;;
10987;SDS011;5547;42.672;23.230;2023-09-30T11:33:27;6.97;;;3.50;;
10987;SDS011;5547;42.672;23.230;2023-09-30T11:36:29;7.07;;;4.95;;
10987;SDS011;5547;42.672;23.230;2023-09-30T11:39:34;7.85;;;3.80;;
10987;SDS011;5547;42.672;23.230;2023-09-30T11:42:35;8.00;;;3.87;;
10987;SDS011;5547;42.672;23.230;2023-09-30T11:45:35;6.50;;;3.87;;
10987;SDS011;5547;42.672;23.230;2023-09-30T11:48:39;5.10;;;3.57;;
10987;SDS011;5547;42.672;23.230;2023-09-30T11:51:56;6.43;;;3.90;;
10987;SDS011;5547;42.672;23.230;2023-09-30T11:55:00;7.20;;;4.28;;
10987;SDS011;5547;42.672;23.230;2023-09-30T11:58:06;7.33;;;4.30;;
10987;SDS011;5547;42.672;23.230;2023-09-30T12:01:09;7.32;;;3.95;;
10987;SDS011;5547;42.672;23.230;2023-09-30T12:04:14;6.03;;;4.30;;
10987;SDS011;5547;42.672;23.230;2023-09-30T12:07:17;7.10;;;4.15;;
10987;SDS011;5547;42.672;23.230;2023-09-30T12:10:17;10.40;;;7.07;;
10987;SDS011;5547;42.672;23.230;2023-09-30T12:13:18;6.23;;;4.07;;
10987;SDS011;5547;42.672;23.230;2023-09-30T12:16:18;9.00;;;5.28;;
10987;SDS011;5547;42.672;23.230;2023-09-30T12:19:19;5.97;;;3.53;;
10987;SDS011;5547;42.672;23.230;2023-09-30T12:22:20;6.80;;;3.80;;
10987;SDS011;5547;42.672;23.230;2023-09-30T12:25:20;7.23;;;3.73;;
10987;SDS011;5547;42.672;23.230;2023-09-30T12:28:21;6.18;;;3.92;;
10987;SDS011;5547;42.672;23.230;2023-09-30T12:31:22;7.50;;;3.90;;
10987;SDS011;5547;42.672;23.230;2023-09-30T12:34:23;7.50;;;3.78;;
10987;SDS011;5547;42.672;23.230;2023-09-30T12:37:25;8.52;;;4.03;;
10987;SDS011;5547;42.672;23.230;2023-09-30T12:40:26;6.87;;;3.80;;
10987;SDS011;5547;42.672;23.230;2023-09-30T12:43:27;6.53;;;4.15;;
10987;SDS011;5547;42.672;23.230;2023-09-30T12:46:27;7.73;;;4.10;;
10987;SDS011;5547;42.672;23.230;2023-09-30T12:49:28;8.40;;;4.38;;
10987;SDS011;5547;42.672;23.230;2023-09-30T12:52:29;7.30;;;3.90;;
10987;SDS011;5547;42.672;23.230;2023-09-30T12:55:30;5.55;;;3.90;;
10987;SDS011;5547;42.672;23.230;2023-09-30T12:58:31;6.63;;;4.03;;
10987;SDS011;5547;42.672;23.230;2023-09-30T13:01:32;6.15;;;4.05;;
10987;SDS011;5547;42.672;23.230;2023-09-30T13:04:34;7.10;;;4.28;;
10987;SDS011;5547;42.672;23.230;2023-09-30T13:07:34;7.70;;;4.18;;
10987;SDS011;5547;42.672;23.230;2023-09-30T13:10:35;8.40;;;4.30;;
10987;SDS011;5547;42.672;23.230;2023-09-30T13:13:36;8.30;;;4.10;;
10987;SDS011;5547;42.672;23.230;2023-09-30T13:16:36;8.93;;;4.15;;
10987;SDS011;5547;42.672;23.230;2023-09-30T13:19:38;6.03;;;4.30;;
10987;SDS011;5547;42.672;23.230;2023-09-30T13:22:39;6.80;;;3.83;;
10987;SDS011;5547;42.672;23.230;2023-09-30T13:25:39;9.03;;;4.20;;
10987;SDS011;5547;42.672;23.230;2023-09-30T13:28:39;7.10;;;4.20;;
10987;SDS011;5547;42.672;23.230;2023-09-30T13:31:40;7.10;;;4.50;;
10987;SDS011;5547;42.672;23.230;2023-09-30T13:34:40;9.80;;;4.90;;
10987;SDS011;5547;42.672;23.230;2023-09-30T13:37:41;9.03;;;4.70;;
10987;SDS011;5547;42.672;23.230;2023-09-30T13:40:41;8.00;;;4.60;;
10987;SDS011;5547;42.672;23.230;2023-09-30T13:43:42;8.43;;;4.68;;
10987;SDS011;5547;42.672;23.230;2023-09-30T13:46:42;7.40;;;4.37;;
10987;SDS011;5547;42.672;23.230;2023-09-30T13:49:43;6.83;;;4.53;;
10987;SDS011;5547;42.672;23.230;2023-09-30T13:52:43;6.13;;;4.07;;
10987;SDS011;5547;42.672;23.230;2023-09-30T13:55:43;9.57;;;4.70;;
10987;SDS011;5547;42.672;23.230;2023-09-30T13:58:45;7.60;;;4.53;;
10987;SDS011;5547;42.672;23.230;2023-09-30T14:01:46;6.28;;;4.65;;
10987;SDS011;5547;42.672;23.230;2023-09-30T14:04:46;9.15;;;4.75;;
10987;SDS011;5547;42.672;23.230;2023-09-30T14:07:47;9.17;;;4.80;;
10987;SDS011;5547;42.672;23.230;2023-09-30T14:10:48;10.75;;;6.28;;
10987;SDS011;5547;42.672;23.230;2023-09-30T14:13:49;10.43;;;5.87;;
10987;SDS011;5547;42.672;23.230;2023-09-30T14:16:49;11.27;;;5.33;;
10987;SDS011;5547;42.672;23.230;2023-09-30T14:19:49;7.77;;;4.63;;
10987;SDS011;5547;42.672;23.230;2023-09-30T14:22:50;7.60;;;5.30;;
10987;SDS011;5547;42.672;23.230;2023-09-30T14:25:54;7.20;;;5.35;;
10987;SDS011;5547;42.672;23.230;2023-09-30T14:28:55;7.87;;;4.40;;
10987;SDS011;5547;42.672;23.230;2023-09-30T14:31:56;9.17;;;5.50;;
10987;SDS011;5547;42.672;23.230;2023-09-30T14:34:57;13.18;;;5.40;;
10987;SDS011;5547;42.672;23.230;2023-09-30T14:37:58;6.60;;;4.53;;
10987;SDS011;5547;42.672;23.230;2023-09-30T14:40:58;9.83;;;5.23;;
10987;SDS011;5547;42.672;23.230;2023-09-30T14:43:59;9.50;;;5.93;;
10987;SDS011;5547;42.672;23.230;2023-09-30T14:47:00;7.72;;;5.00;;
10987;SDS011;5547;42.672;23.230;2023-09-30T14:50:00;7.97;;;4.90;;
10987;SDS011;5547;42.672;23.230;2023-09-30T14:53:02;8.98;;;5.25;;
10987;SDS011;5547;42.672;23.230;2023-09-30T14:56:03;12.75;;;5.88;;
10987;SDS011;5547;42.672;23.230;2023-09-30T14:59:05;10.05;;;4.45;;
10987;SDS011;5547;42.672;23.230;2023-09-30T15:02:06;8.00;;;4.50;;
10987;SDS011;5547;42.672;23.230;2023-09-30T15:05:08;7.15;;;4.40;;
10987;SDS011;5547;42.672;23.230;2023-09-30T15:08:09;6.93;;;5.17;;
10987;SDS011;5547;42.672;23.230;2023-09-30T15:11:13;7.80;;;4.90;;
10987;SDS011;5547;42.672;23.230;2023-09-30T15:14:17;6.55;;;4.35;;
10987;SDS011;5547;42.672;23.230;2023-09-30T15:17:18;6.38;;;4.30;;
10987;SDS011;5547;42.672;23.230;2023-09-30T15:20:18;6.63;;;4.13;;
10987;SDS011;5547;42.672;23.230;2023-09-30T15:23:19;6.97;;;4.50;;
10987;SDS011;5547;42.672;23.230;2023-09-30T15:26:19;7.83;;;4.60;;
10987;SDS011;5547;42.672;23.230;2023-09-30T15:29:20;10.23;;;5.73;;
10987;SDS011;5547;42.672;23.230;2023-09-30T15:32:20;8.60;;;4.80;;
10987;SDS011;5547;42.672;23.230;2023-09-30T15:35:21;10.20;;;5.10;;
10987;SDS011;5547;42.672;23.230;2023-09-30T15:38:22;6.93;;;4.40;;
10987;SDS011;5547;42.672;23.230;2023-09-30T15:41:23;9.53;;;5.63;;
10987;SDS011;5547;42.672;23.230;2023-09-30T15:44:24;12.43;;;6.77;;
10987;SDS011;5547;42.672;23.230;2023-09-30T15:47:24;10.50;;;6.72;;
10987;SDS011;5547;42.672;23.230;2023-09-30T15:50:24;10.98;;;6.18;;
10987;SDS011;5547;42.672;23.230;2023-09-30T15:53:25;12.97;;;8.47;;
10987;SDS011;5547;42.672;23.230;2023-09-30T15:56:25;9.33;;;5.13;;
10987;SDS011;5547;42.672;23.230;2023-09-30T15:59:26;12.93;;;8.10;;
10987;SDS011;5547;42.672;23.230;2023-09-30T16:02:26;9.93;;;6.17;;
10987;SDS011;5547;42.672;23.230;2023-09-30T16:05:28;11.77;;;7.03;;
10987;SDS011;5547;42.672;23.230;2023-09-30T16:08:28;8.50;;;5.37;;
10987;SDS011;5547;42.672;23.230;2023-09-30T16:11:29;8.65;;;5.20;;
10987;SDS011;5547;42.672;23.230;2023-09-30T16:14:30;9.13;;;5.23;;
10987;SDS011;5547;42.672;23.230;2023-09-30T16:17:31;8.98;;;5.50;;
10987;SDS011;5547;42.672;23.230;2023-09-30T16:20:32;9.50;;;5.55;;
10987;SDS011;5547;42.672;23.230;2023-09-30T16:23:32;10.77;;;5.70;;
10987;SDS011;5547;42.672;23.230;2023-09-30T16:26:33;12.10;;;5.30;;
10987;SDS011;5547;42.672;23.230;2023-09-30T16:29:33;8.13;;;5.80;;
10987;SDS011;5547;42.672;23.230;2023-09-30T16:32:33;11.93;;;5.32;;
10987;SDS011;5547;42.672;23.230;2023-09-30T16:35:37;8.95;;;5.13;;
10987;SDS011;5547;42.672;23.230;2023-09-30T16:38:37;7.77;;;5.17;;
10987;SDS011;5547;42.672;23.230;2023-09-30T16:41:38;11.63;;;4.73;;
10987;SDS011;5547;42.672;23.230;2023-09-30T16:44:38;11.07;;;4.90;;
10987;SDS011;5547;42.672;23.230;2023-09-30T16:47:39;8.97;;;5.03;;
10987;SDS011;5547;42.672;23.230;2023-09-30T16:50:42;9.30;;;4.88;;
10987;SDS011;5547;42.672;23.230;2023-09-30T16:53:42;9.90;;;5.38;;
10987;SDS011;5547;42.672;23.230;2023-09-30T16:56:44;10.15;;;5.53;;
10987;SDS011;5547;42.672;23.230;2023-09-30T16:59:44;8.13;;;5.20;;
10987;SDS011;5547;42.672;23.230;2023-09-30T17:02:45;9.77;;;4.65;;
10987;SDS011;5547;42.672;23.230;2023-09-30T17:05:46;7.65;;;5.30;;
10987;SDS011;5547;42.672;23.230;2023-09-30T17:08:46;11.07;;;5.67;;
10987;SDS011;5547;42.672;23.230;2023-09-30T17:11:47;9.70;;;5.68;;
10987;SDS011;5547;42.672;23.230;2023-09-30T17:14:48;8.40;;;5.50;;
10987;SDS011;5547;42.672;23.230;2023-09-30T17:17:48;8.57;;;5.20;;
10987;SDS011;5547;42.672;23.230;2023-09-30T17:20:48;10.37;;;6.00;;
10987;SDS011;5547;42.672;23.230;2023-09-30T17:23:50;7.03;;;5.18;;
10987;SDS011;5547;42.672;23.230;2023-09-30T17:26:51;8.13;;;5.00;;
10987;SDS011;5547;42.672;23.230;2023-09-30T17:29:51;11.90;;;5.00;;
10987;SDS011;5547;42.672;23.230;2023-09-30T17:32:52;7.03;;;4.97;;
10987;SDS011;5547;42.672;23.230;2023-09-30T17:35:57;7.15;;;4.60;;
10987;SDS011;5547;42.672;23.230;2023-09-30T17:38:58;9.20;;;5.05;;
10987;SDS011;5547;42.672;23.230;2023-09-30T17:41:59;9.33;;;5.07;;
10987;SDS011;5547;42.672;23.230;2023-09-30T17:44:59;7.77;;;4.93;;
10987;SDS011;5547;42.672;23.230;2023-09-30T17:47:59;8.70;;;4.87;;
10987;SDS011;5547;42.672;23.230;2023-09-30T17:51:01;8.65;;;4.78;;
10987;SDS011;5547;42.672;23.230;2023-09-30T17:54:01;6.97;;;5.00;;
10987;SDS011;5547;42.672;23.230;2023-09-30T17:57:01;7.07;;;5.00;;
10987;SDS011;5547;42.672;23.230;2023-09-30T18:00:02;6.90;;;4.80;;
10987;SDS011;5547;42.672;23.230;2023-09-30T18:03:03;8.10;;;4.70;;
10987;SDS011;5547;42.672;23.230;2023-09-30T18:06:07;7.73;;;5.00;;
10987;SDS011;5547;42.672;23.230;2023-09-30T18:09:12;6.90;;;5.05;;
10987;SDS011;5547;42.672;23.230;2023-09-30T18:12:13;9.33;;;5.07;;
10987;SDS011;5547;42.672;23.230;2023-09-30T18:15:14;7.68;;;4.80;;